createdAt,value
2018-05-14T00:00:38.257Z,19.66
2018-05-14T00:01:18.809Z,19.59
2018-05-14T00:01:59.570Z,19.59
2018-05-14T00:02:40.156Z,19.66
2018-05-14T00:03:20.723Z,19.54
2018-05-14T00:04:01.264Z,19.55
2018-05-14T00:04:41.852Z,19.52
2018-05-14T00:05:22.396Z,19.54
2018-05-14T00:06:02.969Z,19.62
2018-05-14T00:06:43.545Z,19.51
2018-05-14T00:07:24.121Z,19.66
2018-05-14T00:08:04.703Z,19.51
2018-05-14T00:08:45.238Z,19.51
2018-05-14T00:09:25.815Z,19.47
2018-05-14T00:10:06.386Z,19.52
2018-05-14T00:10:46.969Z,19.52
2018-05-14T00:11:27.540Z,19.59
2018-05-14T00:12:08.112Z,19.63
2018-05-14T00:12:48.723Z,19.67
2018-05-14T00:13:29.277Z,19.54
2018-05-14T00:14:09.860Z,19.52
2018-05-14T00:14:50.430Z,19.52
2018-05-14T00:15:30.989Z,19.47
2018-05-14T00:16:11.560Z,19.47
2018-05-14T00:16:52.125Z,19.45
2018-05-14T00:17:32.700Z,19.44
2018-05-14T00:18:13.295Z,19.54
2018-05-14T00:18:53.848Z,19.44
2018-05-14T00:19:34.406Z,19.39
2018-05-14T00:20:14.969Z,19.41
2018-05-14T00:20:55.566Z,19.45
2018-05-14T00:21:36.138Z,19.44
2018-05-14T00:22:16.703Z,19.44
2018-05-14T00:22:57.272Z,19.4
2018-05-14T00:23:37.844Z,19.4
2018-05-14T00:24:18.405Z,19.41
2018-05-14T00:24:59.019Z,19.41
2018-05-14T00:25:39.585Z,19.47
2018-05-14T00:26:20.139Z,19.45
2018-05-14T00:27:00.697Z,19.41
2018-05-14T00:27:41.303Z,19.51
2018-05-14T00:28:21.836Z,19.47
2018-05-14T00:29:02.410Z,19.39
2018-05-14T00:29:42.981Z,19.4
2018-05-14T00:30:23.550Z,19.45
2018-05-14T00:31:04.150Z,19.41
2018-05-14T00:31:44.700Z,19.37
2018-05-14T00:32:25.268Z,19.4
2018-05-14T00:33:05.852Z,19.31
2018-05-14T00:33:46.417Z,19.36
2018-05-14T00:34:26.985Z,19.4
2018-05-14T00:35:07.542Z,19.33
2018-05-14T00:35:48.104Z,19.39
2018-05-14T00:36:28.658Z,19.33
2018-05-14T00:37:09.228Z,19.3
2018-05-14T00:37:49.819Z,19.31
2018-05-14T00:38:30.376Z,19.34
2018-05-14T00:39:10.954Z,19.31
2018-05-14T00:39:51.513Z,19.36
2018-05-14T00:40:32.093Z,19.29
2018-05-14T00:41:12.645Z,19.29
2018-05-14T00:41:53.182Z,19.26
2018-05-14T00:42:33.760Z,19.26
2018-05-14T00:43:14.361Z,19.27
2018-05-14T00:43:54.937Z,19.24
2018-05-14T00:44:35.558Z,19.26
2018-05-14T00:45:16.081Z,19.18
2018-05-14T00:45:56.645Z,19.27
2018-05-14T00:46:37.226Z,19.26
2018-05-14T00:47:17.801Z,19.26
2018-05-14T00:47:58.389Z,19.24
2018-05-14T00:48:38.975Z,19.19
2018-05-14T00:49:19.549Z,19.21
2018-05-14T00:50:00.090Z,19.26
2018-05-14T00:50:40.661Z,19.29
2018-05-14T00:51:21.224Z,19.18
2018-05-14T00:52:01.768Z,19.18
2018-05-14T00:52:42.338Z,19.15
2018-05-14T00:53:22.917Z,19.24
2018-05-14T00:54:03.491Z,19.18
2018-05-14T00:54:44.087Z,19.16
2018-05-14T00:55:24.669Z,19.18
2018-05-14T00:56:05.242Z,19.21
2018-05-14T00:56:45.799Z,19.21
2018-05-14T00:57:26.385Z,19.22
2018-05-14T00:58:06.930Z,19.19
2018-05-14T00:58:47.532Z,19.14
2018-05-14T00:59:28.078Z,19.19
2018-05-14T01:00:08.655Z,19.18
2018-05-14T01:00:49.206Z,19.19
2018-05-14T01:01:29.755Z,19.16
2018-05-14T01:02:10.310Z,19.16
2018-05-14T01:02:50.858Z,19.09
2018-05-14T01:03:31.435Z,19.16
2018-05-14T01:04:12.026Z,19.14
2018-05-14T01:04:52.590Z,19.11
2018-05-14T01:05:33.154Z,19.04
2018-05-14T01:06:13.708Z,19.09
2018-05-14T01:06:54.308Z,19.12
2018-05-14T01:07:34.891Z,19.12
2018-05-14T01:08:15.464Z,19.11
2018-05-14T01:08:56.017Z,19.02
2018-05-14T01:09:36.601Z,18.99
2018-05-14T01:10:17.184Z,19.08
2018-05-14T01:10:57.750Z,19
2018-05-14T01:11:38.306Z,18.93
2018-05-14T01:12:18.866Z,19
2018-05-14T01:12:59.459Z,19.07
2018-05-14T01:13:40.047Z,18.9
2018-05-14T01:14:20.615Z,19.09
2018-05-14T01:15:01.193Z,19.07
2018-05-14T01:15:41.800Z,19
2018-05-14T01:16:22.349Z,18.92
2018-05-14T01:17:02.911Z,18.89
2018-05-14T01:17:43.482Z,18.93
2018-05-14T01:18:24.059Z,18.96
2018-05-14T01:19:04.625Z,18.99
2018-05-14T01:19:45.180Z,19.02
2018-05-14T01:20:25.741Z,19.02
2018-05-14T01:21:06.318Z,18.89
2018-05-14T01:21:46.889Z,18.93
2018-05-14T01:22:27.448Z,18.9
2018-05-14T01:23:08.025Z,18.9
2018-05-14T01:23:48.603Z,18.93
2018-05-14T01:24:29.210Z,18.86
2018-05-14T01:25:09.789Z,18.89
2018-05-14T01:25:50.493Z,18.95
2018-05-14T01:26:31.088Z,18.86
2018-05-14T01:27:11.647Z,18.84
2018-05-14T01:27:52.223Z,18.89
2018-05-14T01:28:32.814Z,18.88
2018-05-14T01:29:13.366Z,18.88
2018-05-14T01:29:53.932Z,18.89
2018-05-14T01:30:34.497Z,18.92
2018-05-14T01:31:15.060Z,18.93
2018-05-14T01:31:55.624Z,18.86
2018-05-14T01:32:36.213Z,18.88
2018-05-14T01:33:16.767Z,18.88
2018-05-14T01:33:57.351Z,18.84
2018-05-14T01:34:37.912Z,18.8
2018-05-14T01:35:18.494Z,18.89
2018-05-14T01:35:59.059Z,18.84
2018-05-14T01:36:39.624Z,18.83
2018-05-14T01:37:20.184Z,18.75
2018-05-14T01:38:00.750Z,18.75
2018-05-14T01:38:41.304Z,18.93
2018-05-14T01:39:21.920Z,18.86
2018-05-14T01:40:02.504Z,18.74
2018-05-14T01:40:43.080Z,18.86
2018-05-14T01:41:23.656Z,18.8
2018-05-14T01:42:04.251Z,18.77
2018-05-14T01:42:44.815Z,18.86
2018-05-14T01:43:25.384Z,18.75
2018-05-14T01:44:05.956Z,18.83
2018-05-14T01:44:46.521Z,18.8
2018-05-14T01:45:27.114Z,18.78
2018-05-14T01:46:07.681Z,18.75
2018-05-14T01:46:48.246Z,18.77
2018-05-14T01:47:28.803Z,18.75
2018-05-14T01:48:09.356Z,18.75
2018-05-14T01:48:49.927Z,18.78
2018-05-14T01:49:30.494Z,18.7
2018-05-14T01:50:11.045Z,18.78
2018-05-14T01:50:51.612Z,18.75
2018-05-14T01:51:32.188Z,18.71
2018-05-14T01:52:12.769Z,18.77
2018-05-14T01:52:53.338Z,18.74
2018-05-14T01:53:33.931Z,18.75
2018-05-14T01:54:14.481Z,18.77
2018-05-14T01:54:55.040Z,18.73
2018-05-14T01:55:35.593Z,18.74
2018-05-14T01:56:16.149Z,18.74
2018-05-14T01:56:56.697Z,18.73
2018-05-14T01:57:37.275Z,18.73
2018-05-14T01:58:17.859Z,18.77
2018-05-14T01:58:58.403Z,18.78
2018-05-14T01:59:38.943Z,18.75
2018-05-14T02:00:19.502Z,18.7
2018-05-14T02:01:00.073Z,18.66
2018-05-14T02:01:40.659Z,18.62
2018-05-14T02:02:21.236Z,18.65
2018-05-14T02:03:01.801Z,18.6
2018-05-14T02:03:42.366Z,18.63
2018-05-14T02:04:22.932Z,18.6
2018-05-14T02:05:03.491Z,18.65
2018-05-14T02:05:44.056Z,18.6
2018-05-14T02:06:24.630Z,18.59
2018-05-14T02:07:05.185Z,18.59
2018-05-14T02:07:45.772Z,18.6
2018-05-14T02:08:26.349Z,18.58
2018-05-14T02:09:06.946Z,18.63
2018-05-14T02:09:47.521Z,18.59
2018-05-14T02:10:28.099Z,18.55
2018-05-14T02:11:08.673Z,18.53
2018-05-14T02:11:49.244Z,18.55
2018-05-14T02:12:29.823Z,18.56
2018-05-14T02:13:10.412Z,18.53
2018-05-14T02:13:50.953Z,18.5
2018-05-14T02:14:31.504Z,18.55
2018-05-14T02:15:12.064Z,18.55
2018-05-14T02:15:52.631Z,18.49
2018-05-14T02:16:33.205Z,18.49
2018-05-14T02:17:13.794Z,18.47
2018-05-14T02:17:54.366Z,18.4
2018-05-14T02:18:34.941Z,18.41
2018-05-14T02:19:15.487Z,18.41
2018-05-14T02:19:56.063Z,18.35
2018-05-14T02:20:36.604Z,18.4
2018-05-14T02:21:17.174Z,18.43
2018-05-14T02:21:57.768Z,18.44
2018-05-14T02:22:38.334Z,18.49
2018-05-14T02:23:18.898Z,18.44
2018-05-14T02:23:59.501Z,18.45
2018-05-14T02:24:40.091Z,18.43
2018-05-14T02:25:20.667Z,18.34
2018-05-14T02:26:01.260Z,18.31
2018-05-14T02:26:41.832Z,18.37
2018-05-14T02:27:22.388Z,18.41
2018-05-14T02:28:02.948Z,18.43
2018-05-14T02:28:43.517Z,18.47
2018-05-14T02:29:24.149Z,18.28
2018-05-14T02:30:04.706Z,18.37
2018-05-14T02:30:45.266Z,18.33
2018-05-14T02:31:25.871Z,18.34
2018-05-14T02:32:06.433Z,18.37
2018-05-14T02:32:46.991Z,18.35
2018-05-14T02:33:27.558Z,18.26
2018-05-14T02:34:08.121Z,18.29
2018-05-14T02:34:48.708Z,18.37
2018-05-14T02:35:29.286Z,18.31
2018-05-14T02:36:09.853Z,18.31
2018-05-14T02:36:50.419Z,18.34
2018-05-14T02:37:30.977Z,18.26
2018-05-14T02:38:11.586Z,18.31
2018-05-14T02:38:52.137Z,18.31
2018-05-14T02:39:32.692Z,18.37
2018-05-14T02:40:13.259Z,18.31
2018-05-14T02:40:53.816Z,18.33
2018-05-14T02:41:34.379Z,18.31
2018-05-14T02:42:14.920Z,18.31
2018-05-14T02:42:55.491Z,18.26
2018-05-14T02:43:36.091Z,18.19
2018-05-14T02:44:16.661Z,18.28
2018-05-14T02:44:57.233Z,18.25
2018-05-14T02:45:37.813Z,18.22
2018-05-14T02:46:18.370Z,18.18
2018-05-14T02:46:58.941Z,18.19
2018-05-14T02:47:39.503Z,18.25
2018-05-14T02:48:20.076Z,18.16
2018-05-14T02:49:00.787Z,18.22
2018-05-14T02:49:41.354Z,18.19
2018-05-14T02:50:21.917Z,18.19
2018-05-14T02:51:02.473Z,18.2
2018-05-14T02:51:43.161Z,18.16
2018-05-14T02:52:23.684Z,18.2
2018-05-14T02:53:04.256Z,18.15
2018-05-14T02:53:44.829Z,18.15
2018-05-14T02:54:25.400Z,18.08
2018-05-14T02:55:05.986Z,18.15
2018-05-14T02:55:46.607Z,18.16
2018-05-14T02:56:27.174Z,18.19
2018-05-14T02:57:07.737Z,18.19
2018-05-14T02:57:48.290Z,18.13
2018-05-14T02:58:28.873Z,18.18
2018-05-14T02:59:09.438Z,18.11
2018-05-14T02:59:49.998Z,18.15
2018-05-14T03:00:30.609Z,18.1
2018-05-14T03:01:11.175Z,18.11
2018-05-14T03:01:51.744Z,18.08
2018-05-14T03:02:32.301Z,18.08
2018-05-14T03:03:12.865Z,18.13
2018-05-14T03:03:53.456Z,18.11
2018-05-14T03:04:34.049Z,18.1
2018-05-14T03:05:14.649Z,18.07
2018-05-14T03:05:55.207Z,18.13
2018-05-14T03:06:35.793Z,18.05
2018-05-14T03:07:16.361Z,18.05
2018-05-14T03:07:56.901Z,18.1
2018-05-14T03:08:37.467Z,18.05
2018-05-14T03:09:18.023Z,18.07
2018-05-14T03:09:58.619Z,18.01
2018-05-14T03:10:39.167Z,18.03
2018-05-14T03:11:19.721Z,18.05
2018-05-14T03:12:00.308Z,18.04
2018-05-14T03:12:40.881Z,18.03
2018-05-14T03:13:21.456Z,18
2018-05-14T03:14:02.011Z,18.1
2018-05-14T03:14:42.580Z,18
2018-05-14T03:15:23.156Z,17.98
2018-05-14T03:16:03.714Z,18.05
2018-05-14T03:16:44.269Z,18.05
2018-05-14T03:17:24.852Z,18
2018-05-14T03:18:05.418Z,18.07
2018-05-14T03:18:45.989Z,18.01
2018-05-14T03:19:26.569Z,17.97
2018-05-14T03:20:07.162Z,17.95
2018-05-14T03:20:47.736Z,18.01
2018-05-14T03:21:28.290Z,18.01
2018-05-14T03:22:08.872Z,17.97
2018-05-14T03:22:49.423Z,18
2018-05-14T03:23:29.996Z,17.95
2018-05-14T03:24:10.560Z,17.95
2018-05-14T03:24:51.126Z,17.98
2018-05-14T03:25:31.712Z,17.95
2018-05-14T03:26:12.262Z,17.92
2018-05-14T03:26:52.826Z,17.95
2018-05-14T03:27:33.428Z,17.97
2018-05-14T03:28:13.971Z,17.92
2018-05-14T03:28:54.545Z,17.94
2018-05-14T03:29:35.118Z,17.94
2018-05-14T03:30:15.673Z,18.03
2018-05-14T03:30:56.275Z,17.97
2018-05-14T03:31:36.775Z,17.95
2018-05-14T03:32:17.387Z,17.92
2018-05-14T03:32:57.981Z,17.89
2018-05-14T03:33:38.540Z,17.95
2018-05-14T03:34:19.108Z,17.92
2018-05-14T03:35:00.003Z,18
2018-05-14T03:35:40.436Z,17.9
2018-05-14T03:36:21.034Z,17.97
2018-05-14T03:37:01.582Z,17.94
2018-05-14T03:37:42.149Z,17.97
2018-05-14T03:38:22.748Z,17.94
2018-05-14T03:39:03.371Z,17.86
2018-05-14T03:39:43.895Z,17.89
2018-05-14T03:40:24.468Z,17.86
2018-05-14T03:41:05.031Z,17.89
2018-05-14T03:41:45.599Z,17.89
2018-05-14T03:42:26.158Z,17.89
2018-05-14T03:43:06.728Z,17.87
2018-05-14T03:43:47.301Z,17.82
2018-05-14T03:44:27.859Z,17.85
2018-05-14T03:45:08.447Z,17.86
2018-05-14T03:45:48.998Z,17.85
2018-05-14T03:46:29.598Z,17.76
2018-05-14T03:47:10.207Z,17.85
2018-05-14T03:47:50.879Z,17.82
2018-05-14T03:48:31.847Z,17.85
2018-05-14T03:49:12.384Z,17.89
2018-05-14T03:49:52.954Z,17.79
2018-05-14T03:50:33.510Z,17.85
2018-05-14T03:51:14.093Z,17.85
2018-05-14T03:51:54.663Z,17.85
2018-05-14T03:52:35.219Z,17.94
2018-05-14T03:53:15.787Z,17.87
2018-05-14T03:53:56.359Z,17.86
2018-05-14T03:54:36.909Z,17.87
2018-05-14T03:55:17.495Z,17.82
2018-05-14T03:55:58.088Z,17.85
2018-05-14T03:56:38.674Z,17.89
2018-05-14T03:57:19.273Z,17.85
2018-05-14T03:57:59.848Z,17.82
2018-05-14T03:58:40.431Z,17.8
2018-05-14T03:59:21.029Z,17.86
2018-05-14T04:00:01.591Z,17.89
2018-05-14T04:00:42.164Z,17.8
2018-05-14T04:01:22.711Z,17.83
2018-05-14T04:02:03.286Z,17.89
2018-05-14T04:02:43.858Z,17.85
2018-05-14T04:03:24.419Z,17.79
2018-05-14T04:04:05.111Z,17.87
2018-05-14T04:04:45.669Z,17.87
2018-05-14T04:05:26.307Z,17.92
2018-05-14T04:06:06.867Z,17.9
2018-05-14T04:06:47.519Z,17.78
2018-05-14T04:07:28.093Z,17.83
2018-05-14T04:08:08.987Z,17.86
2018-05-14T04:08:49.637Z,17.86
2018-05-14T04:09:30.317Z,17.85
2018-05-14T04:10:10.909Z,17.79
2018-05-14T04:10:51.502Z,17.83
2018-05-14T04:11:32.104Z,17.86
2018-05-14T04:12:12.701Z,17.8
2018-05-14T04:12:53.532Z,17.8
2018-05-14T04:13:34.090Z,17.86
2018-05-14T04:14:14.664Z,17.89
2018-05-14T04:14:55.226Z,17.89
2018-05-14T04:15:35.800Z,17.86
2018-05-14T04:16:16.362Z,17.82
2018-05-14T04:16:56.928Z,17.85
2018-05-14T04:17:37.516Z,17.83
2018-05-14T04:18:18.078Z,17.86
2018-05-14T04:18:58.713Z,17.89
2018-05-14T04:19:39.271Z,17.86
2018-05-14T04:20:19.833Z,17.89
2018-05-14T04:21:00.399Z,17.86
2018-05-14T04:21:40.985Z,17.85
2018-05-14T04:22:21.568Z,17.79
2018-05-14T04:23:02.130Z,17.85
2018-05-14T04:23:42.724Z,17.86
2018-05-14T04:24:23.345Z,17.87
2018-05-14T04:25:03.895Z,17.87
2018-05-14T04:25:44.502Z,17.87
2018-05-14T04:26:25.054Z,17.89
2018-05-14T04:27:05.653Z,17.85
2018-05-14T04:27:46.214Z,17.83
2018-05-14T04:28:26.773Z,17.87
2018-05-14T04:29:07.371Z,17.83
2018-05-14T04:29:47.935Z,17.86
2018-05-14T04:30:28.492Z,17.94
2018-05-14T04:31:09.050Z,17.89
2018-05-14T04:31:49.593Z,17.87
2018-05-14T04:32:30.168Z,17.92
2018-05-14T04:33:10.745Z,17.94
2018-05-14T04:33:51.317Z,18.03
2018-05-14T04:34:31.865Z,18.08
2018-05-14T04:35:12.446Z,18.08
2018-05-14T04:35:53.011Z,18.16
2018-05-14T04:36:33.573Z,18.19
2018-05-14T04:37:14.129Z,18.25
2018-05-14T04:37:54.699Z,18.29
2018-05-14T04:38:35.303Z,18.34
2018-05-14T04:39:15.868Z,18.37
2018-05-14T04:39:56.432Z,18.41
2018-05-14T04:40:36.993Z,18.35
2018-05-14T04:41:17.575Z,18.33
2018-05-14T04:41:58.151Z,18.34
2018-05-14T04:42:38.725Z,18.38
2018-05-14T04:43:19.269Z,18.44
2018-05-14T04:43:59.811Z,18.44
2018-05-14T04:44:40.388Z,18.38
2018-05-14T04:45:20.985Z,18.47
2018-05-14T04:46:01.545Z,18.41
2018-05-14T04:46:42.202Z,18.45
2018-05-14T04:47:23.013Z,18.41
2018-05-14T04:48:03.784Z,18.52
2018-05-14T04:48:44.411Z,18.55
2018-05-14T04:49:25.078Z,18.58
2018-05-14T04:50:05.674Z,18.66
2018-05-14T04:50:46.383Z,18.6
2018-05-14T04:51:26.944Z,18.58
2018-05-14T04:52:07.540Z,18.63
2018-05-14T04:52:48.219Z,18.59
2018-05-14T04:53:28.859Z,18.56
2018-05-14T04:54:09.508Z,18.63
2018-05-14T04:54:50.065Z,18.62
2018-05-14T04:55:30.720Z,18.6
2018-05-14T04:56:11.327Z,18.7
2018-05-14T04:56:51.935Z,18.68
2018-05-14T04:57:32.715Z,18.66
2018-05-14T04:58:13.320Z,18.78
2018-05-14T04:58:53.902Z,18.74
2018-05-14T04:59:34.460Z,18.68
2018-05-14T05:00:15.022Z,18.65
2018-05-14T05:00:55.821Z,18.63
2018-05-14T05:01:36.497Z,18.7
2018-05-14T05:02:17.115Z,18.73
2018-05-14T05:02:57.843Z,18.71
2018-05-14T05:03:38.416Z,18.74
2018-05-14T05:04:18.978Z,18.75
2018-05-14T05:04:59.537Z,18.81
2018-05-14T05:05:40.136Z,18.84
2018-05-14T05:06:20.685Z,18.74
2018-05-14T05:07:01.273Z,18.83
2018-05-14T05:07:41.875Z,18.93
2018-05-14T05:08:22.445Z,18.88
2018-05-14T05:09:03.064Z,18.9
2018-05-14T05:09:43.576Z,18.88
2018-05-14T05:10:24.254Z,18.89
2018-05-14T05:11:04.710Z,18.9
2018-05-14T05:11:45.304Z,18.89
2018-05-14T05:12:25.860Z,18.9
2018-05-14T05:13:06.427Z,18.92
2018-05-14T05:13:46.991Z,18.86
2018-05-14T05:14:27.554Z,18.89
2018-05-14T05:15:08.125Z,18.89
2018-05-14T05:15:48.726Z,18.98
2018-05-14T05:16:29.270Z,18.93
2018-05-14T05:17:09.868Z,18.88
2018-05-14T05:17:50.378Z,18.89
2018-05-14T05:18:30.959Z,18.84
2018-05-14T05:19:11.522Z,18.75
2018-05-14T05:19:52.092Z,18.83
2018-05-14T05:20:32.640Z,18.75
2018-05-14T05:21:13.243Z,18.89
2018-05-14T05:21:53.808Z,18.9
2018-05-14T05:22:34.372Z,18.77
2018-05-14T05:23:14.925Z,18.81
2018-05-14T05:23:55.511Z,18.84
2018-05-14T05:24:36.024Z,18.78
2018-05-14T05:25:16.594Z,18.84
2018-05-14T05:25:57.159Z,18.75
2018-05-14T05:26:37.725Z,18.71
2018-05-14T05:27:18.290Z,18.83
2018-05-14T05:27:58.856Z,18.8
2018-05-14T05:28:39.427Z,18.8
2018-05-14T05:29:20.011Z,18.75
2018-05-14T05:30:00.586Z,18.8
2018-05-14T05:30:41.158Z,18.89
2018-05-14T05:31:21.715Z,18.93
2018-05-14T05:32:02.284Z,18.9
2018-05-14T05:32:42.835Z,18.96
2018-05-14T05:33:23.411Z,18.96
2018-05-14T05:34:03.974Z,18.99
2018-05-14T05:34:44.549Z,19.04
2018-05-14T05:35:25.091Z,19.15
2018-05-14T05:36:05.693Z,19.19
2018-05-14T05:36:46.274Z,19.27
2018-05-14T05:37:26.854Z,19.34
2018-05-14T05:38:07.430Z,19.37
2018-05-14T05:38:48.031Z,19.51
2018-05-14T05:39:28.651Z,19.51
2018-05-14T05:40:09.224Z,19.59
2018-05-14T05:40:49.791Z,19.56
2018-05-14T05:41:30.352Z,19.71
2018-05-14T05:42:10.926Z,19.67
2018-05-14T05:42:51.504Z,19.77
2018-05-14T05:43:32.139Z,19.79
2018-05-14T05:44:12.673Z,19.92
2018-05-14T05:44:53.240Z,19.91
2018-05-14T05:45:33.811Z,19.92
2018-05-14T05:46:14.388Z,20
2018-05-14T05:46:54.968Z,19.96
2018-05-14T05:47:35.542Z,20.11
2018-05-14T05:48:16.115Z,20.28
2018-05-14T05:48:56.702Z,20.37
2018-05-14T05:49:37.276Z,20.44
2018-05-14T05:50:17.871Z,20.37
2018-05-14T05:50:58.415Z,20.58
2018-05-14T05:51:38.979Z,20.59
2018-05-14T05:52:19.618Z,20.7
2018-05-14T05:53:00.123Z,20.77
2018-05-14T05:53:40.704Z,20.8
2018-05-14T05:54:21.272Z,20.88
2018-05-14T05:55:01.877Z,20.99
2018-05-14T05:55:42.440Z,20.97
2018-05-14T05:56:23.004Z,21
2018-05-14T05:57:03.572Z,21.09
2018-05-14T05:57:44.178Z,21.11
2018-05-14T05:58:24.700Z,21.18
2018-05-14T05:59:05.311Z,21.11
2018-05-14T05:59:45.906Z,21.14
2018-05-14T06:00:26.508Z,21.15
2018-05-14T06:01:07.137Z,21.12
2018-05-14T06:01:47.722Z,21.18
2018-05-14T06:02:28.295Z,21.17
2018-05-14T06:03:08.872Z,21.27
2018-05-14T06:03:49.437Z,21.27
2018-05-14T06:04:30.045Z,21.29
2018-05-14T06:05:10.727Z,21.2
2018-05-14T06:05:51.316Z,21.3
2018-05-14T06:06:31.914Z,21.35
2018-05-14T06:07:12.481Z,21.46
2018-05-14T06:07:53.070Z,21.51
2018-05-14T06:08:33.910Z,21.5
2018-05-14T06:09:14.404Z,21.6
2018-05-14T06:09:55.013Z,21.64
2018-05-14T06:10:35.617Z,21.75
2018-05-14T06:11:16.210Z,21.83
2018-05-14T06:11:56.783Z,21.89
2018-05-14T06:12:37.364Z,21.91
2018-05-14T06:13:17.949Z,21.99
2018-05-14T06:13:58.529Z,21.98
2018-05-14T06:14:39.096Z,22.1
2018-05-14T06:15:19.673Z,22.18
2018-05-14T06:16:00.258Z,22.26
2018-05-14T06:16:40.822Z,22.22
2018-05-14T06:17:21.435Z,22.33
2018-05-14T06:18:02.021Z,22.25
2018-05-14T06:18:42.595Z,22.29
2018-05-14T06:19:23.147Z,22.3
2018-05-14T06:20:03.739Z,22.47
2018-05-14T06:20:44.315Z,22.43
2018-05-14T06:21:24.906Z,22.54
2018-05-14T06:22:05.518Z,22.57
2018-05-14T06:22:46.147Z,22.66
2018-05-14T06:23:26.722Z,22.59
2018-05-14T06:24:07.287Z,22.8
2018-05-14T06:24:47.894Z,22.83
2018-05-14T06:25:28.453Z,22.91
2018-05-14T06:26:09.012Z,23.02
2018-05-14T06:26:49.582Z,23.03
2018-05-14T06:27:30.151Z,23.06
2018-05-14T06:28:10.744Z,23.05
2018-05-14T06:28:51.311Z,23.12
2018-05-14T06:29:31.903Z,23.17
2018-05-14T06:30:12.478Z,23.08
2018-05-14T06:30:53.060Z,23.12
2018-05-14T06:31:33.648Z,23.08
2018-05-14T06:32:14.218Z,23.1
2018-05-14T06:32:54.785Z,23.03
2018-05-14T06:33:35.358Z,23.03
2018-05-14T06:34:15.940Z,22.98
2018-05-14T06:34:56.702Z,22.98
2018-05-14T06:35:37.250Z,22.96
2018-05-14T06:36:17.707Z,23.02
2018-05-14T06:36:58.252Z,22.94
2018-05-14T06:37:38.828Z,22.99
2018-05-14T06:38:19.402Z,23
2018-05-14T06:38:59.965Z,23.05
2018-05-14T06:39:40.549Z,23.06
2018-05-14T06:40:21.113Z,23.05
2018-05-14T06:41:01.677Z,23.13
2018-05-14T06:41:42.272Z,23.15
2018-05-14T06:42:22.848Z,23.17
2018-05-14T06:43:03.430Z,23.27
2018-05-14T06:43:44.007Z,23.34
2018-05-14T06:44:24.660Z,23.37
2018-05-14T06:45:05.155Z,23.31
2018-05-14T06:45:45.728Z,23.43
2018-05-14T06:46:26.306Z,23.47
2018-05-14T06:47:06.887Z,23.4
2018-05-14T06:47:47.463Z,23.46
2018-05-14T06:48:28.045Z,23.47
2018-05-14T06:49:08.618Z,23.55
2018-05-14T06:49:49.261Z,23.48
2018-05-14T06:50:29.784Z,23.48
2018-05-14T06:51:10.349Z,23.48
2018-05-14T06:51:50.905Z,23.5
2018-05-14T06:52:31.489Z,23.66
2018-05-14T06:53:12.081Z,23.58
2018-05-14T06:53:52.657Z,23.51
2018-05-14T06:54:33.228Z,23.54
2018-05-14T06:55:14.111Z,23.59
2018-05-14T06:55:54.635Z,23.51
2018-05-14T06:56:35.181Z,23.55
2018-05-14T06:57:15.798Z,23.55
2018-05-14T06:57:56.395Z,23.59
2018-05-14T06:58:36.958Z,23.62
2018-05-14T06:59:17.561Z,23.61
2018-05-14T06:59:58.118Z,23.66
2018-05-14T07:00:38.698Z,23.63
2018-05-14T07:01:19.257Z,23.61
2018-05-14T07:01:59.829Z,23.66
2018-05-14T07:02:40.400Z,23.69
2018-05-14T07:03:20.987Z,23.65
2018-05-14T07:04:01.568Z,23.61
2018-05-14T07:04:42.147Z,23.71
2018-05-14T07:05:22.716Z,23.76
2018-05-14T07:06:03.319Z,23.84
2018-05-14T07:06:44.085Z,23.95
2018-05-14T07:07:24.445Z,23.83
2018-05-14T07:08:05.037Z,23.84
2018-05-14T07:08:45.643Z,23.87
2018-05-14T07:09:26.221Z,23.81
2018-05-14T07:10:06.779Z,23.96
2018-05-14T07:10:47.389Z,24.01
2018-05-14T07:11:28.014Z,24.01
2018-05-14T07:12:08.533Z,24.02
2018-05-14T07:12:49.101Z,24.1
2018-05-14T07:13:29.673Z,24.16
2018-05-14T07:14:10.235Z,24.14
2018-05-14T07:14:50.812Z,24.14
2018-05-14T07:15:32.196Z,24.11
2018-05-14T07:16:12.759Z,24.11
2018-05-14T07:16:53.343Z,24.13
2018-05-14T07:17:33.921Z,24.17
2018-05-14T07:18:14.513Z,24.17
2018-05-14T07:18:55.148Z,24.13
2018-05-14T07:19:35.834Z,24.06
2018-05-14T07:20:16.251Z,24.11
2018-05-14T07:20:56.821Z,24.05
2018-05-14T07:21:37.364Z,24.14
2018-05-14T07:22:17.970Z,24.14
2018-05-14T07:22:58.560Z,24.17
2018-05-14T07:23:39.141Z,24.18
2018-05-14T07:24:19.736Z,24.06
2018-05-14T07:25:00.356Z,24.23
2018-05-14T07:25:41.096Z,24.14
2018-05-14T07:26:21.524Z,24.14
2018-05-14T07:27:02.066Z,24.16
2018-05-14T07:27:42.623Z,24.2
2018-05-14T07:28:23.221Z,24.18
2018-05-14T07:29:03.792Z,24.16
2018-05-14T07:29:44.362Z,24.14
2018-05-14T07:30:24.915Z,24.23
2018-05-14T07:31:05.472Z,24.28
2018-05-14T07:31:46.063Z,24.18
2018-05-14T07:32:26.641Z,24.21
2018-05-14T07:33:07.217Z,24.18
2018-05-14T07:33:47.819Z,24.23
2018-05-14T07:34:28.375Z,24.17
2018-05-14T07:35:08.963Z,24.21
2018-05-14T07:35:49.552Z,24.23
2018-05-14T07:36:30.155Z,24.2
2018-05-14T07:37:10.736Z,24.23
2018-05-14T07:37:51.310Z,24.17
2018-05-14T07:38:31.901Z,24.21
2018-05-14T07:39:12.469Z,24.16
2018-05-14T07:39:53.047Z,24.14
2018-05-14T07:40:33.708Z,24.17
2018-05-14T07:41:14.224Z,24.17
2018-05-14T07:41:54.821Z,24.17
2018-05-14T07:42:35.427Z,24.2
2018-05-14T07:43:16.012Z,24.18
2018-05-14T07:43:56.618Z,24.17
2018-05-14T07:44:37.191Z,24.1
2018-05-14T07:45:17.768Z,24.18
2018-05-14T07:45:58.351Z,24.21
2018-05-14T07:46:38.926Z,24.33
2018-05-14T07:47:19.510Z,24.4
2018-05-14T07:48:00.074Z,24.42
2018-05-14T07:48:40.639Z,24.48
2018-05-14T07:49:21.222Z,24.54
2018-05-14T07:50:01.886Z,24.48
2018-05-14T07:50:42.385Z,24.53
2018-05-14T07:51:22.948Z,24.5
2018-05-14T07:52:03.560Z,24.53
2018-05-14T07:52:44.116Z,24.55
2018-05-14T07:53:24.695Z,24.51
2018-05-14T07:54:05.261Z,24.53
2018-05-14T07:54:45.844Z,24.54
2018-05-14T07:55:26.425Z,24.5
2018-05-14T07:56:07.004Z,24.43
2018-05-14T07:56:47.603Z,24.42
2018-05-14T07:57:28.173Z,24.48
2018-05-14T07:58:08.753Z,24.51
2018-05-14T07:58:49.318Z,24.42
2018-05-14T07:59:29.882Z,24.51
2018-05-14T08:00:10.578Z,24.47
2018-05-14T08:00:51.066Z,24.5
2018-05-14T08:01:31.641Z,24.54
2018-05-14T08:02:12.236Z,24.51
2018-05-14T08:02:52.819Z,24.54
2018-05-14T08:03:33.390Z,24.48
2018-05-14T08:04:13.980Z,24.51
2018-05-14T08:04:54.572Z,24.57
2018-05-14T08:05:35.172Z,24.47
2018-05-14T08:06:15.753Z,24.53
2018-05-14T08:06:56.322Z,24.54
2018-05-14T08:07:36.905Z,24.54
2018-05-14T08:08:17.500Z,24.55
2018-05-14T08:08:58.098Z,24.63
2018-05-14T08:09:38.698Z,24.58
2018-05-14T08:10:19.249Z,24.6
2018-05-14T08:10:59.835Z,24.48
2018-05-14T08:11:40.442Z,24.54
2018-05-14T08:12:20.994Z,24.5
2018-05-14T08:13:01.557Z,24.58
2018-05-14T08:13:42.149Z,24.54
2018-05-14T08:14:22.710Z,24.55
2018-05-14T08:15:03.283Z,24.54
2018-05-14T08:15:43.848Z,24.58
2018-05-14T08:16:24.457Z,24.55
2018-05-14T08:17:05.053Z,24.63
2018-05-14T08:17:45.617Z,24.61
2018-05-14T08:18:26.208Z,24.66
2018-05-14T08:19:06.786Z,24.63
2018-05-14T08:19:47.391Z,24.74
2018-05-14T08:20:28.013Z,24.76
2018-05-14T08:21:08.583Z,24.8
2018-05-14T08:21:49.148Z,24.88
2018-05-14T08:22:29.725Z,24.92
2018-05-14T08:23:10.295Z,24.92
2018-05-14T08:23:50.900Z,25.03
2018-05-14T08:24:31.461Z,25.08
2018-05-14T08:25:12.025Z,25.08
2018-05-14T08:25:52.601Z,25.13
2018-05-14T08:26:33.170Z,25.17
2018-05-14T08:27:13.768Z,25.13
2018-05-14T08:27:54.364Z,25.17
2018-05-14T08:28:34.952Z,25.18
2018-05-14T08:29:15.573Z,25.18
2018-05-14T08:29:56.150Z,25.14
2018-05-14T08:30:36.715Z,25.21
2018-05-14T08:31:17.283Z,25.13
2018-05-14T08:31:57.889Z,25.22
2018-05-14T08:32:38.428Z,25.07
2018-05-14T08:33:18.999Z,25.17
2018-05-14T08:33:59.564Z,25.21
2018-05-14T08:34:40.155Z,25.28
2018-05-14T08:35:20.766Z,25.23
2018-05-14T08:36:01.364Z,25.29
2018-05-14T08:36:41.929Z,25.33
2018-05-14T08:37:22.507Z,25.4
2018-05-14T08:38:03.077Z,25.31
2018-05-14T08:38:43.645Z,25.29
2018-05-14T08:39:24.216Z,25.31
2018-05-14T08:40:04.805Z,25.23
2018-05-14T08:40:45.367Z,25.26
2018-05-14T08:41:25.954Z,25.23
2018-05-14T08:42:06.555Z,25.11
2018-05-14T08:42:47.123Z,25.23
2018-05-14T08:43:27.670Z,25.21
2018-05-14T08:44:08.284Z,25.26
2018-05-14T08:44:48.835Z,25.25
2018-05-14T08:45:29.405Z,25.18